createdAt,value
2018-07-14T00:04:27.598Z,3.7
2018-07-14T00:10:22.604Z,3.98
2018-07-14T00:16:17.618Z,3.84
2018-07-14T00:22:12.599Z,3.93
2018-07-14T00:28:07.613Z,4.04
2018-07-14T00:34:02.652Z,3.94
2018-07-14T00:39:57.636Z,3.81
2018-07-14T00:45:52.613Z,4.13
2018-07-14T00:51:47.615Z,3.74
2018-07-14T00:57:42.632Z,4.36
2018-07-14T01:03:37.610Z,3.9
2018-07-14T01:09:32.615Z,3.89
2018-07-14T01:15:27.634Z,3.72
2018-07-14T01:21:22.654Z,4.46
2018-07-14T01:27:17.610Z,4.58
2018-07-14T01:33:12.622Z,4.49
2018-07-14T01:39:07.632Z,4.33
2018-07-14T01:45:02.630Z,4.15
2018-07-14T01:50:57.667Z,4.49
2018-07-14T01:56:52.622Z,4.3
2018-07-14T02:02:47.644Z,3.9
2018-07-14T02:08:42.658Z,4.61
2018-07-14T02:14:37.709Z,4.37
2018-07-14T02:20:32.633Z,4.34
2018-07-14T02:26:27.679Z,4.82
2018-07-14T02:32:22.659Z,4.56
2018-07-14T02:38:17.685Z,4.34
2018-07-14T02:44:12.680Z,4.43
2018-07-14T02:50:07.669Z,4.56
2018-07-14T02:56:02.668Z,4.54
2018-07-14T03:01:57.705Z,4.94
2018-07-14T03:07:52.753Z,4.93
2018-07-14T03:13:47.671Z,4.42
2018-07-14T03:19:42.709Z,4.79
2018-07-14T03:25:37.701Z,4.49
2018-07-14T03:31:32.772Z,4.39
2018-07-14T03:37:27.698Z,4.36
2018-07-14T03:43:22.712Z,4.91
2018-07-14T03:49:17.706Z,5.1
2018-07-14T03:55:12.710Z,4.9
2018-07-14T04:01:07.798Z,5.39
2018-07-14T04:07:02.734Z,5.03
2018-07-14T04:12:57.725Z,4.4
2018-07-14T04:18:52.746Z,4.51
2018-07-14T04:24:47.742Z,4.77
2018-07-14T04:30:42.786Z,4.29
2018-07-14T04:36:37.719Z,4.91
2018-07-14T04:42:32.867Z,3.98
2018-07-14T04:48:27.745Z,4.44
2018-07-14T04:54:22.789Z,4.31
2018-07-14T05:00:17.746Z,4.15
2018-07-14T05:06:12.763Z,5.06
2018-07-14T05:12:07.762Z,4.81
2018-07-14T05:18:02.761Z,5.28
2018-07-14T05:23:57.779Z,5.1
2018-07-14T05:29:52.806Z,4.92
2018-07-14T05:35:47.775Z,4.13
2018-07-14T05:41:42.785Z,4.97
2018-07-14T05:47:37.826Z,4.77
2018-07-14T05:53:32.798Z,4.67
2018-07-14T05:59:27.821Z,4.56
2018-07-14T06:05:22.813Z,4.7
2018-07-14T06:11:17.801Z,4.68
2018-07-14T06:17:12.863Z,4.85
2018-07-14T06:23:07.845Z,4.85
2018-07-14T06:29:02.846Z,5.18
2018-07-14T06:34:57.857Z,5.01
2018-07-14T06:40:52.820Z,5.76
2018-07-14T06:46:47.809Z,5.84
2018-07-14T06:52:42.840Z,5.05
2018-07-14T06:58:37.843Z,5.07
2018-07-14T07:04:32.818Z,4.73
2018-07-14T07:10:27.897Z,4.83
2018-07-14T07:16:22.823Z,5.31
2018-07-14T07:22:17.855Z,4.92
2018-07-14T07:28:12.839Z,4.38
2018-07-14T07:34:07.863Z,5.18
2018-07-14T07:40:03.106Z,5.09
2018-07-14T07:45:57.852Z,4.24
2018-07-14T07:51:52.878Z,3.63
2018-07-14T07:57:47.857Z,3.59
2018-07-14T08:03:42.888Z,3.61
2018-07-14T08:09:37.933Z,3.59
2018-07-14T08:15:32.888Z,3.55
2018-07-14T08:21:27.890Z,3.76
2018-07-14T08:27:22.891Z,3.56
2018-07-14T08:33:17.897Z,3.96
2018-07-14T08:39:12.940Z,3.53
2018-07-14T08:45:07.942Z,4.03
2018-07-14T08:51:02.954Z,3.6
2018-07-14T08:56:57.931Z,4.12
2018-07-14T09:02:52.966Z,4.03
2018-07-14T09:08:47.932Z,3.53
2018-07-14T09:14:42.939Z,3.64
2018-07-14T09:20:37.976Z,3.64
2018-07-14T09:26:32.983Z,3.49
2018-07-14T09:32:28.033Z,3.39
2018-07-14T09:38:22.978Z,3.09
2018-07-14T09:44:17.973Z,3.57
2018-07-14T09:50:12.951Z,2.88
2018-07-14T09:56:07.975Z,2.91
2018-07-14T10:02:03.036Z,3.2
2018-07-14T10:07:57.999Z,3.07
2018-07-14T10:13:52.976Z,3.39
2018-07-14T10:19:48.021Z,3.45
2018-07-14T10:25:43.173Z,2.95
2018-07-14T10:31:38.012Z,2.92
2018-07-14T10:37:32.991Z,2.72
2018-07-14T10:43:28.011Z,3.27
2018-07-14T10:49:23.027Z,2.92
2018-07-14T10:55:18.036Z,2.46
2018-07-14T11:01:13.025Z,2.8
2018-07-14T11:07:08.025Z,2.7
2018-07-14T11:13:03.024Z,2.78
2018-07-14T11:18:58.054Z,2.66
2018-07-14T11:24:53.069Z,2.6
2018-07-14T11:30:48.088Z,2.85
2018-07-14T11:36:43.052Z,2.89
2018-07-14T11:42:38.065Z,2.73
2018-07-14T11:48:33.079Z,3.02
2018-07-14T11:54:28.087Z,3.07
2018-07-14T12:00:23.068Z,3.05
2018-07-14T12:06:18.065Z,2.87
2018-07-14T12:12:13.115Z,2.7
2018-07-14T12:18:08.077Z,2.49
2018-07-14T12:24:03.081Z,2.64
2018-07-14T12:29:58.106Z,3
2018-07-14T12:35:53.109Z,2.97
2018-07-14T12:41:48.151Z,2.87
2018-07-14T12:47:43.106Z,2.8
2018-07-14T12:53:38.108Z,3.06
2018-07-14T12:59:33.110Z,3.35
2018-07-14T13:05:28.109Z,3.22
2018-07-14T13:11:23.127Z,3.09
2018-07-14T13:17:18.170Z,3.46
2018-07-14T13:23:13.196Z,3.35
2018-07-14T13:29:08.152Z,3.76
2018-07-14T13:35:03.200Z,4.14
2018-07-14T13:40:58.147Z,3.13
2018-07-14T13:46:53.150Z,3.23
2018-07-14T13:52:48.133Z,3.84
2018-07-14T13:58:43.199Z,3.62
2018-07-14T14:04:38.162Z,3.39
2018-07-14T14:10:33.161Z,3.59
2018-07-14T14:16:28.213Z,3.26
2018-07-14T14:22:23.195Z,3.05
2018-07-14T14:28:18.179Z,3.11
2018-07-14T14:34:13.176Z,3.07
2018-07-14T14:40:08.264Z,3.09
2018-07-14T14:46:03.206Z,3.21
2018-07-14T14:51:58.200Z,3.52
2018-07-14T14:57:53.208Z,3.14
2018-07-14T15:03:48.247Z,3.44
2018-07-14T15:09:43.280Z,4.9
2018-07-14T15:15:38.235Z,3.74
2018-07-14T15:21:33.237Z,4.12
2018-07-14T15:27:28.236Z,3.82
2018-07-14T15:33:23.421Z,3.64
2018-07-14T15:39:18.244Z,3.68
2018-07-14T15:45:13.312Z,3.65
2018-07-14T15:51:08.272Z,3.74
2018-07-14T15:57:03.255Z,3.9
2018-07-14T16:02:58.281Z,4.05
2018-07-14T16:08:53.263Z,3.87
2018-07-14T16:14:48.280Z,3.68
2018-07-14T16:20:43.276Z,4.21
2018-07-14T16:26:38.274Z,4.28
2018-07-14T16:32:33.289Z,4.03
2018-07-14T16:38:28.294Z,4.33
2018-07-14T16:44:23.310Z,4.29
2018-07-14T16:50:18.423Z,4.13
2018-07-14T16:56:13.377Z,4.31
2018-07-14T17:02:08.334Z,4.55
2018-07-14T17:08:03.311Z,4.43
2018-07-14T17:13:58.406Z,4.14
2018-07-14T17:19:53.363Z,4.61
2018-07-14T17:25:48.334Z,4.63
2018-07-14T17:31:43.339Z,5.24
2018-07-14T17:37:38.346Z,5.59
2018-07-14T17:43:33.342Z,6.07
2018-07-14T17:49:28.343Z,5.08
2018-07-14T17:55:23.393Z,5.4
2018-07-14T18:01:18.332Z,7.75
2018-07-14T18:07:13.380Z,6.39
2018-07-14T18:13:08.355Z,7.57
2018-07-14T18:19:03.372Z,5.74
2018-07-14T18:24:58.378Z,5.39
2018-07-14T18:30:53.405Z,56.53
2018-07-14T18:36:48.381Z,54.57
2018-07-14T18:42:43.443Z,21.47
2018-07-14T18:48:38.422Z,10.07
2018-07-14T18:54:33.386Z,50.08
2018-07-14T19:00:36.596Z,46.29
2018-07-14T19:06:27.449Z,24.46
2018-07-14T19:12:22.612Z,10.1
2018-07-14T19:18:17.448Z,7.1
2018-07-14T19:24:08.402Z,6.07
2018-07-14T19:30:03.414Z,6.97
2018-07-14T19:35:58.435Z,6.27
2018-07-14T19:41:53.443Z,6.16
2018-07-14T19:47:48.433Z,6.24
2018-07-14T19:53:43.500Z,5.78
2018-07-14T19:59:38.448Z,5.37
2018-07-14T20:05:33.430Z,4.43
2018-07-14T20:11:28.480Z,3.56
2018-07-14T20:17:23.452Z,3.54
2018-07-14T20:23:18.468Z,3.5
2018-07-14T20:29:13.462Z,3.62
2018-07-14T20:35:08.514Z,3.56
2018-07-14T20:41:03.476Z,3.61
2018-07-14T20:46:58.503Z,3.51
2018-07-14T20:52:53.466Z,4.13
2018-07-14T20:58:48.479Z,3.65
2018-07-14T21:04:43.499Z,3.36
2018-07-14T21:10:38.528Z,4.24
2018-07-14T21:16:33.490Z,4.05
2018-07-14T21:22:28.486Z,3.95
2018-07-14T21:28:23.516Z,3.71
2018-07-14T21:34:18.537Z,4.36
2018-07-14T21:40:13.571Z,3.96
2018-07-14T21:46:08.523Z,3.56
2018-07-14T21:52:03.534Z,4.12
2018-07-14T21:57:58.523Z,4.29
2018-07-14T22:03:53.594Z,4.67
2018-07-14T22:09:48.528Z,4.73
2018-07-14T22:15:43.544Z,4.54
2018-07-14T22:21:38.537Z,4.81
2018-07-14T22:27:33.586Z,5.09
2018-07-14T22:33:28.591Z,5.03
2018-07-14T22:39:23.624Z,5.1
2018-07-14T22:45:18.553Z,5.39
2018-07-14T22:51:13.603Z,5.39
2018-07-14T22:57:08.577Z,4.99
2018-07-14T23:03:03.566Z,4.92
2018-07-14T23:08:58.584Z,4.52
2018-07-14T23:14:53.574Z,4.98
2018-07-14T23:20:48.577Z,4.43
2018-07-14T23:26:43.577Z,4.13
2018-07-14T23:32:38.579Z,4.54
2018-07-14T23:38:33.595Z,4.17
2018-07-14T23:44:28.680Z,4.31
2018-07-14T23:50:23.684Z,4.53
2018-07-14T23:56:18.747Z,4.84
